PHL weather

Philadelphia International Airport
Philadelphia, Pennsylvania, United States

Public forecast

Using degrees Fahrenheit for public forecast. Weather courtesy of forecast.io.

Current aviation weather report (METAR) for Philadelphia International Airport

Retrieved 2020/04/01 09:54 UTC (42 minutes ago):

KPHL 010954Z 05007KT 10SM SCT022 OVC029 05/00 A2980 RMK AO2 SLP090 T00500000

Aviation forecast (TAF) for Philadelphia International Airport

Retrieved 2020/04/01 09:03 UTC (2 hours ago):

TAF KPHL 010848Z 0109/0212 05011KT P6SM OVC020 FM011100 03011KT P6SM SCT020 BKN080 FM011300 02011G18KT P6SM BKN090 FM012000 35009KT P6SM BKN090 FM020300 34011KT P6SM FEW150